Time;durP1;ratioP1;P1;durP2;ratioP2;P2;SDS_P1;SDS_P2;PMS_P1;PMS_P2;Temp;Humidity;BMP_temperature;BMP_pressure;BME280_temperature;BME280_humidity;BME280_pressure;Samples;Min_cycle;Max_cycle;Signal;HPM_P1;HPM_P2
2022/04/09 00:00:14;;;;;;;1.50;1.40;;;;;;;1.81;79.70;97227.38;4155871;28;20738;-57
2022/04/09 00:02:18;;;;;;;1.40;1.35;;;;;;;1.88;80.10;97233.50;4154476;28;20212;-55
2022/04/09 00:04:20;;;;;;;0.95;0.95;;;;;;;1.85;79.73;97243.94;4152203;28;20254;-56
2022/04/09 00:06:23;;;;;;;1.20;1.20;;;;;;;1.79;79.25;97245.66;4149927;28;20208;-56
2022/04/09 00:08:24;;;;;;;1.23;1.23;;;;;;;1.86;79.18;97246.41;4135963;28;20297;-56
2022/04/09 00:10:26;;;;;;;1.30;1.30;;;;;;;1.81;79.72;97264.31;4154767;28;20212;-56
2022/04/09 00:12:28;;;;;;;1.00;1.00;;;;;;;1.89;79.38;97267.50;4153201;28;20216;-56
2022/04/09 00:14:29;;;;;;;1.40;1.30;;;;;;;1.91;79.65;97281.63;4154627;28;20209;-59
2022/04/09 00:16:31;;;;;;;1.25;1.25;;;;;;;1.82;79.64;97293.72;4134151;28;20207;-56
2022/04/09 00:18:33;;;;;;;1.98;1.88;;;;;;;1.86;79.51;97299.50;4137377;28;20798;-56
2022/04/09 00:20:34;;;;;;;1.00;1.00;;;;;;;1.85;79.40;97304.09;4150547;28;20334;-58
2022/04/09 00:22:38;;;;;;;1.13;1.13;;;;;;;1.83;79.42;97303.50;4133528;28;20210;-56
2022/04/09 00:24:40;;;;;;;0.90;0.90;;;;;;;1.82;79.17;97315.31;4149960;28;20274;-55
2022/04/09 00:26:42;;;;;;;1.00;1.00;;;;;;;1.82;79.35;97326.09;4154372;28;20306;-58
2022/04/09 00:28:43;;;;;;;1.00;1.00;;;;;;;1.86;79.50;97337.25;4154553;28;20213;-56
2022/04/09 00:30:45;;;;;;;1.10;1.10;;;;;;;1.87;79.41;97345.13;4152595;28;20202;-56
2022/04/09 00:32:47;;;;;;;1.10;1.10;;;;;;;1.86;79.59;97348.88;4154017;28;20264;-56
2022/04/09 00:34:52;;;;;;;1.15;1.15;;;;;;;1.81;79.77;97362.19;4136847;28;20309;-56
2022/04/09 00:36:53;;;;;;;1.10;1.10;;;;;;;1.74;79.64;97363.31;4150561;28;20209;-57
2022/04/09 00:38:55;;;;;;;1.95;1.85;;;;;;;1.68;79.96;97365.03;4152699;28;20282;-56
2022/04/09 00:40:57;;;;;;;1.45;1.45;;;;;;;1.77;79.56;97374.50;4137991;28;20264;-56
2022/04/09 00:42:59;;;;;;;1.45;1.45;;;;;;;1.71;80.04;97383.47;4140311;28;20225;-57
2022/04/09 00:45:01;;;;;;;1.20;1.20;;;;;;;1.75;79.71;97383.84;4152466;28;20217;-58
2022/04/09 00:47:03;;;;;;;1.23;1.17;;;;;;;1.69;80.24;97387.44;4124080;28;20600;-56
2022/04/09 00:49:04;;;;;;;1.55;1.45;;;;;;;1.68;79.78;97394.69;4152589;28;20201;-56
2022/04/09 00:51:06;;;;;;;1.50;1.50;;;;;;;1.70;80.01;97398.00;4121097;28;20256;-56
2022/04/09 00:53:09;;;;;;;1.13;1.13;;;;;;;1.69;80.33;97401.72;4135918;28;20233;-56
2022/04/09 00:55:11;;;;;;;2.00;1.90;;;;;;;1.73;80.42;97396.72;4137377;28;20288;-57
2022/04/09 00:57:13;;;;;;;1.38;1.27;;;;;;;1.67;80.04;97403.81;4118645;28;20211;-57
2022/04/09 00:59:17;;;;;;;1.80;1.70;;;;;;;1.63;79.92;97410.72;4129176;28;20213;-56
2022/04/09 01:01:19;;;;;;;1.35;1.35;;;;;;;1.63;80.32;97413.41;4116165;28;20725;-56
2022/04/09 01:03:21;;;;;;;1.50;1.40;;;;;;;1.73;80.22;97416.41;4148006;28;20339;-57
2022/04/09 01:05:23;;;;;;;1.48;1.48;;;;;;;1.74;79.99;97428.03;4151452;28;20212;-55
2022/04/09 01:07:29;;;;;;;1.20;1.20;;;;;;;1.68;80.21;97427.03;4135836;28;20220;-56
2022/04/09 01:09:31;;;;;;;1.55;1.45;;;;;;;1.65;80.26;97438.25;4151485;28;20231;-56
2022/04/09 01:11:33;;;;;;;2.38;2.28;;;;;;;1.66;79.93;97450.69;4151461;28;20209;-56
2022/04/09 01:13:36;;;;;;;1.30;1.30;;;;;;;1.68;79.96;97453.97;4150155;28;21360;-56
2022/04/09 01:15:37;;;;;;;1.77;1.67;;;;;;;1.53;79.79;97455.38;4152413;28;20243;-56
2022/04/09 01:17:40;;;;;;;2.58;2.38;;;;;;;1.62;80.07;97459.44;4141678;28;20205;-56
2022/04/09 01:19:42;;;;;;;1.83;1.73;;;;;;;1.55;80.22;97464.88;4151730;28;20197;-55
2022/04/09 01:21:43;;;;;;;1.52;1.50;;;;;;;1.54;80.33;97468.63;4136142;28;20244;-56
2022/04/09 01:23:45;;;;;;;1.52;1.42;;;;;;;1.54;80.16;97478.59;4137231;28;20629;-58
2022/04/09 01:25:47;;;;;;;1.85;1.75;;;;;;;1.58;80.55;97488.72;4132688;28;20296;-55
2022/04/09 01:27:49;;;;;;;2.35;2.25;;;;;;;1.50;80.30;97494.38;4131225;28;20253;-56
2022/04/09 01:29:51;;;;;;;2.13;1.95;;;;;;;1.48;80.01;97499.13;4150706;28;20208;-56
2022/04/09 01:31:53;;;;;;;1.45;1.45;;;;;;;1.51;80.51;97503.25;4134018;28;20300;-56
2022/04/09 01:33:55;;;;;;;1.83;1.73;;;;;;;1.51;80.17;97512.19;4148296;28;20225;-56
2022/04/09 01:35:57;;;;;;;2.38;2.17;;;;;;;1.58;80.30;97531.00;4136782;28;20721;-56
2022/04/09 01:37:58;;;;;;;4.10;1.88;;;;;;;1.59;80.23;97529.94;4150686;28;20630;-56
2022/04/09 01:40:00;;;;;;;2.88;2.78;;;;;;;1.67;79.97;97535.91;4133295;28;20240;-56
2022/04/09 01:42:02;;;;;;;1.92;1.80;;;;;;;1.69;80.29;97547.28;4133612;28;20202;-58
2022/04/09 01:44:04;;;;;;;2.83;2.55;;;;;;;1.58;79.66;97556.09;4134423;28;20226;-56
2022/04/09 01:46:06;;;;;;;2.83;2.72;;;;;;;1.51;79.87;97558.00;4133159;28;20206;-57
2022/04/09 01:48:07;;;;;;;2.70;2.50;;;;;;;1.56;79.55;97568.13;4131837;28;20249;-58
2022/04/09 01:50:10;;;;;;;1.90;1.80;;;;;;;1.49;80.04;97568.16;4135944;28;20214;-57
2022/04/09 01:52:12;;;;;;;3.30;3.10;;;;;;;1.46;80.12;97563.22;4140993;28;20578;-57
2022/04/09 01:54:14;;;;;;;2.20;2.00;;;;;;;1.43;80.20;97579.81;4133806;28;20336;-55
2022/04/09 01:56:15;;;;;;;1.77;1.73;;;;;;;1.36;80.21;97576.34;4150334;28;20209;-55
2022/04/09 01:58:17;;;;;;;2.67;2.58;;;;;;;1.44;80.28;97586.84;4134107;28;20264;-56
2022/04/09 02:00:19;;;;;;;2.13;2.03;;;;;;;1.35;80.79;97581.94;4134315;28;20206;-57
2022/04/09 02:02:20;;;;;;;3.30;3.15;;;;;;;1.34;80.91;97591.88;4151274;28;20626;-57
2022/04/09 02:04:22;;;;;;;6.07;2.90;;;;;;;1.27;81.35;97601.84;4136642;28;20245;-58
2022/04/09 02:06:25;;;;;;;2.65;2.45;;;;;;;1.27;81.25;97607.25;4154272;28;20783;-57
2022/04/09 02:08:26;;;;;;;2.83;2.63;;;;;;;1.27;81.16;97618.03;4153611;28;20267;-56
2022/04/09 02:10:30;;;;;;;3.17;2.97;;;;;;;1.30;80.75;97612.22;4150831;28;20224;-56
2022/04/09 02:12:32;;;;;;;3.08;2.28;;;;;;;1.31;81.26;97630.03;4136210;28;20898;-57
2022/04/09 02:14:34;;;;;;;3.25;3.03;;;;;;;1.41;81.14;97635.78;4150838;28;20205;-55
2022/04/09 02:16:37;;;;;;;3.88;3.58;;;;;;;1.34;80.96;97645.75;4149337;28;20201;-55
2022/04/09 02:18:38;;;;;;;2.75;2.55;;;;;;;1.32;81.01;97653.25;4150847;28;20715;-57
2022/04/09 02:20:40;;;;;;;2.83;2.65;;;;;;;1.40;81.13;97650.28;4135353;28;20217;-56
2022/04/09 02:22:44;;;;;;;2.88;2.67;;;;;;;1.34;80.70;97651.16;4118045;28;20304;-56
2022/04/09 02:24:49;;;;;;;3.22;3.03;;;;;;;1.25;80.76;97657.81;4137178;28;20261;-56
2022/04/09 02:26:51;;;;;;;3.05;2.85;;;;;;;1.26;80.95;97658.63;4149382;28;20200;-56
2022/04/09 02:28:53;;;;;;;3.33;3.13;;;;;;;1.39;80.69;97664.81;4135361;28;20249;-57
2022/04/09 02:30:54;;;;;;;3.28;3.00;;;;;;;1.22;80.76;97669.00;4117803;28;20233;-57
2022/04/09 02:32:56;;;;;;;3.17;2.97;;;;;;;1.26;80.65;97670.25;4149033;28;20233;-58
2022/04/09 02:34:58;;;;;;;2.93;2.73;;;;;;;1.25;80.84;97681.22;4131861;28;20265;-58
2022/04/09 02:37:01;;;;;;;3.70;3.40;;;;;;;1.19;80.93;97684.78;4149811;28;20243;-57
2022/04/09 02:39:04;;;;;;;3.08;2.88;;;;;;;1.23;81.18;97697.63;4132780;28;20244;-56
2022/04/09 02:41:06;;;;;;;3.70;3.40;;;;;;;1.24;81.00;97696.59;4148908;28;20246;-57
2022/04/09 02:43:10;;;;;;;3.88;3.67;;;;;;;1.25;80.79;97700.09;4131801;28;20380;-57
2022/04/09 02:45:12;;;;;;;5.10;4.75;;;;;;;1.14;80.73;97703.47;4134334;28;20639;-57
2022/04/09 02:47:14;;;;;;;4.07;3.78;;;;;;;1.14;81.30;97708.84;4149826;28;20283;-58
2022/04/09 02:49:16;;;;;;;2.65;2.42;;;;;;;1.24;81.15;97710.06;4132805;28;20588;-56
2022/04/09 02:51:18;;;;;;;5.97;4.25;;;;;;;1.29;80.85;97712.13;4151564;28;20217;-58
2022/04/09 02:53:20;;;;;;;8.82;4.47;;;;;;;1.30;80.93;97720.00;4133350;28;20285;-57
2022/04/09 02:55:21;;;;;;;5.10;4.80;;;;;;;1.29;81.11;97723.69;4132929;28;20213;-58
2022/04/09 02:57:23;;;;;;;6.20;4.87;;;;;;;1.16;81.19;97726.44;4151294;28;20606;-57
2022/04/09 02:59:27;;;;;;;4.27;3.97;;;;;;;1.17;81.02;97736.19;4135088;28;20193;-58
2022/04/09 03:01:31;;;;;;;5.40;5.07;;;;;;;1.07;81.35;97735.78;4149229;28;20304;-57
2022/04/09 03:03:33;;;;;;;5.32;4.93;;;;;;;1.17;81.46;97744.28;4148975;28;20228;-57
2022/04/09 03:05:35;;;;;;;4.20;3.80;;;;;;;1.12;81.52;97744.06;4149542;28;20205;-55
2022/04/09 03:07:36;;;;;;;4.65;4.35;;;;;;;1.11;81.25;97747.78;4131822;28;20308;-57
2022/04/09 03:09:38;;;;;;;3.03;2.83;;;;;;;1.08;81.86;97750.88;4131419;28;20264;-55
2022/04/09 03:11:40;;;;;;;5.33;4.83;;;;;;;1.25;81.23;97754.81;4131021;28;20675;-57
2022/04/09 03:13:41;;;;;;;3.00;2.70;;;;;;;1.20;80.88;97757.31;4134828;28;20225;-57
2022/04/09 03:15:43;;;;;;;3.65;3.40;;;;;;;1.08;81.03;97758.97;4149074;28;20206;-57
2022/04/09 03:17:45;;;;;;;5.10;4.70;;;;;;;1.16;81.23;97764.16;4132121;28;20210;-57
2022/04/09 03:19:47;;;;;;;4.90;4.53;;;;;;;1.13;81.29;97772.66;4130906;28;20574;-58
2022/04/09 03:21:48;;;;;;;6.33;5.87;;;;;;;1.07;81.61;97773.47;4133920;28;20210;-57
2022/04/09 03:23:51;;;;;;;5.20;4.90;;;;;;;1.18;81.38;97777.41;4133116;28;20284;-56
2022/04/09 03:25:53;;;;;;;4.80;4.27;;;;;;;1.15;81.31;97781.34;4147658;28;20638;-55
2022/04/09 03:27:54;;;;;;;4.47;4.18;;;;;;;1.18;81.26;97778.25;4134296;28;20283;-57
2022/04/09 03:29:56;;;;;;;5.07;4.68;;;;;;;1.17;81.70;97786.53;4151370;28;20305;-58
2022/04/09 03:31:59;;;;;;;4.22;4.03;;;;;;;1.15;81.56;97799.38;4136608;28;20205;-58
2022/04/09 03:34:03;;;;;;;3.40;3.13;;;;;;;1.09;81.68;97797.53;4134547;28;20230;-58
2022/04/09 03:36:06;;;;;;;4.43;4.05;;;;;;;1.14;81.12;97795.03;4132560;28;20205;-57
2022/04/09 03:38:11;;;;;;;5.72;4.07;;;;;;;1.08;80.98;97807.44;4148173;28;20205;-57
2022/04/09 03:40:13;;;;;;;4.50;4.20;;;;;;;1.03;81.72;97803.72;4133987;28;20206;-58
2022/04/09 03:42:16;;;;;;;4.57;4.28;;;;;;;1.08;81.34;97809.34;4132523;28;20693;-57
2022/04/09 03:44:20;;;;;;;5.00;4.60;;;;;;;1.04;81.14;97818.84;4148473;28;20589;-57
2022/04/09 03:46:22;;;;;;;5.15;4.75;;;;;;;1.15;81.56;97819.03;4148406;28;20578;-56
2022/04/09 03:48:24;;;;;;;3.58;3.28;;;;;;;1.16;81.03;97826.13;4147691;28;20757;-55
2022/04/09 03:50:26;;;;;;;4.82;4.53;;;;;;;1.06;81.03;97831.06;4135978;28;20659;-56
2022/04/09 03:52:27;;;;;;;3.33;3.13;;;;;;;1.08;81.12;97833.56;4137826;28;20233;-56
2022/04/09 03:54:30;;;;;;;5.75;5.35;;;;;;;1.18;80.76;97821.34;4155197;28;20225;-56
2022/04/09 03:56:31;;;;;;;5.13;4.75;;;;;;;1.06;81.17;97831.06;4153696;28;20204;-57
2022/04/09 03:58:36;;;;;;;4.93;4.53;;;;;;;1.01;81.09;97828.16;4152273;28;20638;-56
2022/04/09 04:00:38;;;;;;;4.32;3.92;;;;;;;1.06;80.89;97824.84;4150787;28;20205;-56
2022/04/09 04:02:40;;;;;;;4.88;4.57;;;;;;;1.12;81.26;97832.94;4139204;28;20205;-55
2022/04/09 04:04:43;;;;;;;4.87;4.57;;;;;;;1.05;81.25;97845.59;4153416;28;20547;-55
2022/04/09 04:06:44;;;;;;;5.45;5.05;;;;;;;1.05;81.36;97845.59;4137857;28;20710;-55
2022/04/09 04:08:46;;;;;;;5.93;4.88;;;;;;;1.01;81.23;97857.78;4156492;28;20985;-55
2022/04/09 04:10:48;;;;;;;4.85;4.45;;;;;;;0.98;81.13;97870.84;4154541;28;20208;-57
2022/04/09 04:12:50;;;;;;;4.10;3.83;;;;;;;0.98;81.33;97871.69;4152370;28;20230;-56
2022/04/09 04:14:52;;;;;;;5.43;5.03;;;;;;;0.95;81.01;97887.44;4154315;28;20286;-56
2022/04/09 04:16:54;;;;;;;4.07;3.80;;;;;;;0.99;81.00;97878.72;4154279;28;20224;-56
2022/04/09 04:18:55;;;;;;;3.95;3.63;;;;;;;0.98;80.94;97892.38;4153481;28;20205;-56
2022/04/09 04:20:57;;;;;;;3.90;3.60;;;;;;;1.02;81.07;97880.19;4151065;28;20212;-55
2022/04/09 04:22:59;;;;;;;4.03;3.72;;;;;;;1.06;81.14;97893.03;4155186;28;20232;-56
2022/04/09 04:25:00;;;;;;;3.97;3.67;;;;;;;0.92;81.29;97904.81;4137287;28;20214;-55
2022/04/09 04:27:03;;;;;;;4.83;4.33;;;;;;;0.90;81.42;97900.66;4135242;28;20681;-56
2022/04/09 04:29:05;;;;;;;3.33;3.13;;;;;;;0.95;80.90;97915.16;4153889;28;20638;-56
2022/04/09 04:31:07;;;;;;;3.95;3.67;;;;;;;1.02;80.91;97910.63;4133975;28;20368;-56
2022/04/09 04:33:09;;;;;;;4.10;3.80;;;;;;;1.07;80.87;97910.03;4151850;28;20260;-55
2022/04/09 04:35:11;;;;;;;4.85;4.55;;;;;;;1.16;81.10;97912.31;4151322;28;20213;-56
2022/04/09 04:37:13;;;;;;;4.93;3.78;;;;;;;1.15;80.75;97916.03;4134428;28;20952;-56
2022/04/09 04:39:14;;;;;;;3.90;3.50;;;;;;;1.20;81.05;97924.31;4138833;28;20953;-56
2022/04/09 04:41:16;;;;;;;4.75;3.70;;;;;;;1.15;80.71;97932.19;4125610;28;20819;-56
2022/04/09 04:43:18;;;;;;;3.30;3.10;;;;;;;1.19;81.02;97933.44;4123277;28;20255;-55
2022/04/09 04:45:19;;;;;;;4.30;3.95;;;;;;;1.10;80.60;97945.47;4137914;28;20646;-55
2022/04/09 04:47:21;;;;;;;3.60;3.40;;;;;;;1.17;80.45;97940.91;4154464;28;21104;-56
2022/04/09 04:49:25;;;;;;;5.07;4.78;;;;;;;1.08;81.15;97944.81;4121903;28;20229;-55
2022/04/09 04:51:27;;;;;;;4.70;4.30;;;;;;;1.08;80.97;97947.50;4138468;28;20292;-55
2022/04/09 04:53:29;;;;;;;5.45;4.95;;;;;;;1.06;80.92;97951.44;4153843;28;20259;-55
2022/04/09 04:55:31;;;;;;;5.05;4.65;;;;;;;1.03;81.05;97958.09;4134912;28;20221;-55
2022/04/09 04:57:47;;;;;;;4.65;4.35;;;;;;;0.98;81.41;97960.56;4153244;28;20568;-55
2022/04/09 04:59:49;;;;;;;4.40;4.10;;;;;;;1.05;80.96;97966.78;4150987;28;21083;-56
2022/04/09 05:01:57;;;;;;;3.37;3.17;;;;;;;1.03;81.10;97958.09;4135732;28;20224;-55
2022/04/09 05:03:59;;;;;;;5.63;5.33;;;;;;;0.97;81.64;97966.97;4152203;28;20699;-55
2022/04/09 05:06:00;;;;;;;5.23;4.83;;;;;;;0.99;81.51;97969.44;4151144;28;20490;-55
2022/04/09 05:08:02;;;;;;;5.07;4.67;;;;;;;0.96;81.53;97976.09;4152865;28;20243;-55
2022/04/09 05:10:09;;;;;;;5.90;5.33;;;;;;;1.00;81.46;97980.03;4135000;28;20260;-55
2022/04/09 05:12:14;;;;;;;3.90;3.60;;;;;;;1.02;81.04;97985.22;4150886;28;20210;-55
2022/04/09 05:14:16;;;;;;;4.27;3.97;;;;;;;1.11;81.35;97989.38;4135572;28;20235;-55
2022/04/09 05:16:17;;;;;;;5.73;5.23;;;;;;;1.15;81.08;97994.13;4136849;28;20201;-55
2022/04/09 05:18:19;;;;;;;3.17;2.97;;;;;;;1.15;81.26;98007.63;4119828;28;20253;-54
2022/04/09 05:20:21;;;;;;;5.22;4.57;;;;;;;1.17;81.10;98004.72;4151894;28;20200;-55
2022/04/09 05:22:25;;;;;;;4.60;4.30;;;;;;;1.24;81.05;98011.81;4132432;28;20256;-55
2022/04/09 05:24:29;;;;;;;3.80;3.50;;;;;;;1.20;80.61;98013.22;4138370;28;20775;-56
2022/04/09 05:26:31;;;;;;;6.93;4.77;;;;;;;1.15;81.11;98013.00;4135624;28;20699;-55
2022/04/09 05:28:33;;;;;;;7.63;3.70;;;;;;;1.19;81.04;98026.88;4151484;28;20228;-55
2022/04/09 05:30:35;;;;;;;5.37;4.97;;;;;;;1.19;80.97;98030.44;4132897;28;20228;-55
2022/04/09 05:32:39;;;;;;;5.57;5.07;;;;;;;1.23;80.69;98037.09;4152728;28;20209;-57
2022/04/09 05:34:41;;;;;;;4.88;4.47;;;;;;;1.29;80.60;98041.63;4137940;28;20214;-57
2022/04/09 05:36:42;;;;;;;4.30;4.00;;;;;;;1.33;80.38;98048.28;4150450;28;20201;-56
2022/04/09 05:38:44;;;;;;;4.40;4.10;;;;;;;1.36;80.45;98047.91;4131641;28;20217;-57
2022/04/09 05:40:46;;;;;;;4.60;4.30;;;;;;;1.35;79.91;98054.28;4135004;28;20224;-57
2022/04/09 05:42:48;;;;;;;5.73;5.23;;;;;;;1.35;80.34;98059.69;4152120;28;20224;-57
2022/04/09 05:44:50;;;;;;;5.53;5.03;;;;;;;1.34;80.18;98068.81;4147724;28;20203;-57
2022/04/09 05:46:52;;;;;;;8.60;4.35;;;;;;;1.38;80.39;98070.06;4148250;28;20209;-55
2022/04/09 05:48:56;;;;;;;5.03;4.63;;;;;;;1.32;80.08;98068.19;4133927;28;20230;-56
2022/04/09 05:50:58;;;;;;;4.90;4.60;;;;;;;1.34;80.42;98074.19;4150541;28;20213;-57
2022/04/09 05:53:00;;;;;;;5.23;4.83;;;;;;;1.37;80.36;98081.88;4132187;28;20936;-55
2022/04/09 05:55:03;;;;;;;7.45;6.95;;;;;;;1.42;79.79;98082.09;4137154;28;20205;-58
2022/04/09 05:57:06;;;;;;;4.60;4.20;;;;;;;1.45;80.26;98079.00;4148387;28;20208;-57
2022/04/09 05:59:07;;;;;;;5.27;4.87;;;;;;;1.72;80.23;98096.91;4133090;28;20205;-55
2022/04/09 06:01:24;;;;;;;5.07;4.68;;;;;;;1.81;80.26;98111.84;4135473;28;20202;-57
2022/04/09 06:03:25;;;;;;;4.93;4.63;;;;;;;2.03;79.06;98105.25;4134879;28;20586;-57
2022/04/09 06:05:27;;;;;;;5.50;5.20;;;;;;;1.94;79.26;98111.84;4132497;28;20241;-56
2022/04/09 06:07:30;;;;;;;5.90;5.53;;;;;;;2.13;79.15;98121.84;4131747;28;21681;-57
2022/04/09 06:09:32;;;;;;;5.00;4.60;;;;;;;2.21;79.20;98123.50;4127065;28;20297;-57
2022/04/09 06:11:34;;;;;;;5.80;5.43;;;;;;;2.20;78.30;98130.75;4151738;28;20233;-56
2022/04/09 06:13:35;;;;;;;5.63;5.10;;;;;;;2.16;78.51;98129.53;4133846;28;20229;-56
2022/04/09 06:15:37;;;;;;;7.70;7.00;;;;;;;2.37;77.78;98123.09;4149376;28;20240;-57
2022/04/09 06:17:39;;;;;;;6.55;6.05;;;;;;;2.61;77.89;98131.38;4148561;28;20205;-57
2022/04/09 06:19:42;;;;;;;6.35;5.85;;;;;;;2.69;77.63;98123.06;4116677;28;20293;-57
2022/04/09 06:21:43;;;;;;;5.63;5.15;;;;;;;2.74;76.61;98122.44;4119522;28;20228;-57
2022/04/09 06:23:45;;;;;;;5.75;5.13;;;;;;;2.86;76.95;98129.69;4133570;28;20620;-56
2022/04/09 06:25:47;;;;;;;4.78;4.38;;;;;;;3.00;76.51;98141.31;4149285;28;20252;-57
2022/04/09 06:27:48;;;;;;;7.20;6.45;;;;;;;3.18;76.75;98144.13;4130388;28;20686;-57
2022/04/09 06:29:50;;;;;;;6.00;4.95;;;;;;;3.16;75.31;98147.06;4130916;28;20909;-56
2022/04/09 06:31:52;;;;;;;5.55;5.03;;;;;;;3.01;75.73;98154.56;4135409;28;20209;-56
2022/04/09 06:33:55;;;;;;;5.88;5.47;;;;;;;3.05;75.69;98150.41;4127972;28;20282;-56
2022/04/09 06:35:57;;;;;;;7.15;6.65;;;;;;;2.72;75.80;98157.75;4147675;28;20711;-56
2022/04/09 06:37:59;;;;;;;6.65;6.05;;;;;;;2.90;77.29;98160.66;4134299;28;20238;-57
2022/04/09 06:40:00;;;;;;;5.75;5.20;;;;;;;3.37;76.48;98165.72;4135521;28;20206;-56
2022/04/09 06:42:02;;;;;;;5.15;4.75;;;;;;;3.48;76.39;98164.22;4133587;28;20209;-57
2022/04/09 06:44:05;;;;;;;6.78;6.28;;;;;;;4.12;75.52;98164.91;4150784;28;20303;-57
2022/04/09 06:46:10;;;;;;;6.57;5.93;;;;;;;4.30;74.78;98165.84;4146008;28;20213;-58
2022/04/09 06:48:11;;;;;;;5.60;5.10;;;;;;;4.49;74.05;98164.88;4146728;28;20240;-58
2022/04/09 06:50:16;;;;;;;5.72;5.32;;;;;;;4.92;73.21;98168.44;4146606;28;20689;-58
2022/04/09 06:52:18;;;;;;;6.60;6.10;;;;;;;4.89;72.67;98158.06;4148170;28;22413;-57
2022/04/09 06:54:20;;;;;;;6.38;5.88;;;;;;;4.70;71.27;98169.91;4149016;28;20225;-58
2022/04/09 06:56:22;;;;;;;4.47;4.13;;;;;;;4.89;71.99;98163.47;4150569;28;20638;-58
2022/04/09 06:58:23;;;;;;;4.78;4.38;;;;;;;5.01;70.14;98169.81;4132484;28;20742;-56
2022/04/09 07:00:25;;;;;;;5.25;4.88;;;;;;;5.51;70.30;98179.50;4147815;28;20244;-57
2022/04/09 07:02:27;;;;;;;5.28;4.88;;;;;;;5.54;69.51;98173.63;4132081;28;20239;-56
2022/04/09 07:04:29;;;;;;;4.95;4.57;;;;;;;5.26;69.61;98176.03;4133575;28;20221;-55
2022/04/09 07:06:31;;;;;;;6.40;5.78;;;;;;;4.93;70.68;98170.09;4147879;28;20207;-56
2022/04/09 07:08:36;;;;;;;6.40;5.82;;;;;;;4.75;70.83;98171.94;4149929;28;20204;-56
2022/04/09 07:10:38;;;;;;;12.23;5.07;;;;;;;5.06;71.61;98169.97;4133077;28;20212;-56
2022/04/09 07:12:39;;;;;;;9.52;4.80;;;;;;;5.20;69.69;98160.66;4151559;28;20225;-56
2022/04/09 07:14:41;;;;;;;4.72;4.38;;;;;;;5.23;70.18;98166.44;4135474;28;20209;-55
2022/04/09 07:16:45;;;;;;;3.83;3.53;;;;;;;5.64;70.07;98179.34;4133870;28;20308;-57
2022/04/09 07:18:47;;;;;;;5.38;4.90;;;;;;;5.61;68.99;98182.50;4150526;28;20243;-56
2022/04/09 07:20:48;;;;;;;5.43;4.93;;;;;;;5.56;69.18;98188.63;4133415;28;20680;-56
2022/04/09 07:22:50;;;;;;;3.63;3.38;;;;;;;5.77;68.76;98187.34;4147822;28;20286;-55
2022/04/09 07:24:52;;;;;;;4.57;4.18;;;;;;;5.28;69.71;98173.91;4132619;28;20237;-55
2022/04/09 07:26:54;;;;;;;5.85;5.28;;;;;;;5.68;68.22;98186.81;4150718;28;20204;-55
2022/04/09 07:28:56;;;;;;;5.60;5.20;;;;;;;5.20;68.68;98182.34;4133823;28;20213;-55
2022/04/09 07:30:58;;;;;;;8.55;4.97;;;;;;;6.02;69.29;98191.63;4133234;28;20256;-55
2022/04/09 07:33:00;;;;;;;5.75;5.25;;;;;;;5.97;67.36;98193.38;4153057;28;20311;-55
2022/04/09 07:35:02;;;;;;;8.48;4.70;;;;;;;5.99;67.91;98188.53;4136463;28;20220;-57
2022/04/09 07:37:04;;;;;;;4.38;3.97;;;;;;;6.01;68.10;98203.53;4148945;28;20204;-55
2022/04/09 07:39:06;;;;;;;4.78;4.38;;;;;;;5.94;67.43;98196.53;4149579;28;20271;-55
2022/04/09 07:41:07;;;;;;;8.35;4.57;;;;;;;6.20;67.87;98201.63;4136772;28;20583;-55
2022/04/09 07:43:09;;;;;;;6.00;5.40;;;;;;;6.71;67.54;98210.91;4152539;28;20232;-55
2022/04/09 07:45:12;;;;;;;5.10;4.57;;;;;;;5.97;67.58;98207.75;4135383;28;20214;-56
2022/04/09 07:47:14;;;;;;;4.90;4.50;;;;;;;5.99;68.16;98207.53;4149817;28;20761;-55
2022/04/09 07:49:16;;;;;;;4.55;4.20;;;;;;;6.31;67.38;98209.84;4150991;28;20794;-56
2022/04/09 07:51:18;;;;;;;7.30;5.82;;;;;;;6.40;67.83;98213.03;4152786;28;20240;-55
2022/04/09 07:53:19;;;;;;;4.80;4.40;;;;;;;6.80;67.00;98216.81;4122656;28;20269;-53
2022/04/09 07:55:21;;;;;;;5.70;5.25;;;;;;;6.60;66.45;98216.28;4138095;28;20214;-54
2022/04/09 07:57:24;;;;;;;3.88;3.60;;;;;;;6.95;65.89;98218.00;4136230;28;20209;-55
2022/04/09 07:59:26;;;;;;;5.20;4.80;;;;;;;6.95;65.93;98206.31;4149930;28;20258;-55
2022/04/09 08:01:28;;;;;;;11.00;4.82;;;;;;;6.62;66.91;98216.91;4134250;28;20205;-56
2022/04/09 08:03:29;;;;;;;7.50;5.63;;;;;;;6.05;67.30;98221.06;4150039;28;20749;-55
2022/04/09 08:05:31;;;;;;;5.10;4.35;;;;;;;6.03;67.94;98222.34;4132746;28;20236;-56
2022/04/09 08:07:33;;;;;;;6.30;5.80;;;;;;;6.34;67.23;98225.66;4130941;28;21009;-56
2022/04/09 08:09:35;;;;;;;5.35;4.97;;;;;;;6.72;66.42;98223.44;4132629;28;20268;-54
2022/04/09 08:11:36;;;;;;;6.75;4.63;;;;;;;6.73;66.70;98224.25;4135591;28;20221;-55
2022/04/09 08:13:39;;;;;;;5.75;5.28;;;;;;;6.86;66.28;98224.88;4151115;28;20271;-55
2022/04/09 08:15:40;;;;;;;11.38;4.78;;;;;;;6.82;66.88;98237.25;4148072;28;20212;-54
2022/04/09 08:17:42;;;;;;;5.03;4.53;;;;;;;7.00;65.53;98230.91;4133698;28;20691;-54
2022/04/09 08:19:44;;;;;;;8.75;5.20;;;;;;;6.89;65.96;98229.81;4150281;28;20306;-53
2022/04/09 08:21:45;;;;;;;8.10;7.43;;;;;;;6.85;65.83;98244.13;4150178;28;20259;-54
2022/04/09 08:23:47;;;;;;;12.18;9.57;;;;;;;6.97;66.38;98236.84;4135989;28;20254;-53
2022/04/09 08:25:49;;;;;;;8.55;7.93;;;;;;;7.67;65.57;98238.50;4151953;28;20679;-54
2022/04/09 08:27:52;;;;;;;8.13;5.35;;;;;;;7.24;64.54;98235.31;4134999;28;20205;-54
2022/04/09 08:29:54;;;;;;;4.75;4.35;;;;;;;6.87;66.04;98236.56;4137833;28;20650;-54
2022/04/09 08:31:56;;;;;;;6.50;4.57;;;;;;;7.33;64.87;98231.19;4133253;28;20210;-55
2022/04/09 08:33:58;;;;;;;4.00;3.67;;;;;;;7.83;64.19;98232.34;4148266;28;20956;-55
2022/04/09 08:36:02;;;;;;;6.22;4.38;;;;;;;7.93;64.02;98232.53;4119675;28;20218;-54
2022/04/09 08:38:04;;;;;;;4.35;3.65;;;;;;;8.06;62.68;98233.09;4153025;28;20208;-54
2022/04/09 08:40:06;;;;;;;4.68;4.28;;;;;;;8.05;63.30;98236.91;4130285;28;20618;-55
2022/04/09 08:42:08;;;;;;;3.75;2.78;;;;;;;8.35;63.34;98236.72;4133518;28;20261;-54
2022/04/09 08:44:10;;;;;;;4.63;4.22;;;;;;;8.42;62.68;98237.41;4121156;28;20229;-54
2022/04/09 08:46:13;;;;;;;3.95;3.65;;;;;;;7.93;62.98;98244.28;4151891;28;20217;-55
2022/04/09 08:48:16;;;;;;;4.28;3.55;;;;;;;7.64;64.48;98238.97;4132097;28;20217;-55
2022/04/09 08:50:20;;;;;;;3.80;3.50;;;;;;;8.26;63.32;98244.47;4150673;28;20232;-55
2022/04/09 08:52:22;;;;;;;5.00;4.57;;;;;;;8.21;62.57;98257.16;4134744;28;20221;-54
2022/04/09 08:54:24;;;;;;;2.70;2.50;;;;;;;8.65;61.61;98253.66;4135731;28;20242;-55
2022/04/09 08:56:26;;;;;;;2.83;2.63;;;;;;;8.73;61.16;98256.81;4135136;28;20209;-55
2022/04/09 08:58:29;;;;;;;4.65;2.90;;;;;;;9.79;59.72;98262.13;4133549;28;20221;-56
2022/04/09 09:00:32;;;;;;;3.78;3.08;;;;;;;9.28;59.96;98259.72;4153412;28;20208;-55
2022/04/09 09:02:37;;;;;;;3.03;2.83;;;;;;;8.85;60.48;98256.75;4135618;28;20204;-56
2022/04/09 09:04:39;;;;;;;3.42;2.78;;;;;;;8.99;59.82;98266.28;4149321;28;20216;-56
2022/04/09 09:06:44;;;;;;;3.22;2.97;;;;;;;9.00;60.36;98274.25;4134921;28;21007;-55
2022/04/09 09:08:46;;;;;;;2.63;2.35;;;;;;;8.67;61.30;98276.06;4119948;28;20206;-56
2022/04/09 09:10:56;;;;;;;2.83;2.63;;;;;;;9.15;60.88;98281.88;4133890;28;20220;-56
2022/04/09 09:13:04;;;;;;;2.78;2.63;;;;;;;8.89;60.99;98282.50;4121317;28;20221;-54
2022/04/09 09:15:07;;;;;;;2.38;2.28;;;;;;;7.99;61.00;98286.06;4130967;28;20621;-54
2022/04/09 09:17:08;;;;;;;3.65;2.83;;;;;;;7.79;63.83;98283.72;4147680;28;20298;-56
2022/04/09 09:19:10;;;;;;;3.45;2.47;;;;;;;7.41;64.08;98277.94;4148112;28;20205;-55
2022/04/09 09:21:15;;;;;;;8.48;2.67;;;;;;;6.62;65.38;98293.81;4153370;28;20326;-55
2022/04/09 09:23:27;;;;;;;3.15;2.33;;;;;;;7.12;64.58;98288.88;4152953;28;20789;-55
2022/04/09 09:25:29;;;;;;;3.80;3.17;;;;;;;7.56;63.55;98280.19;4134782;28;21130;-55
2022/04/09 09:27:31;;;;;;;2.50;2.30;;;;;;;7.69;64.44;98290.84;4137552;28;20220;-54
2022/04/09 09:29:33;;;;;;;2.25;1.95;;;;;;;8.19;63.71;98294.69;4135000;28;20251;-54
2022/04/09 09:31:39;;;;;;;2.67;2.42;;;;;;;8.67;61.26;98292.41;4151137;28;20209;-54
2022/04/09 09:33:48;;;;;;;2.70;2.50;;;;;;;7.84;62.38;98300.19;4132762;28;20230;-53
2022/04/09 09:36:08;;;;;;;2.35;2.25;;;;;;;8.28;62.25;98304.19;4149788;28;22106;-54
2022/04/09 09:38:40;;;;;;;2.72;2.53;;;;;;;8.14;62.55;98306.31;4134695;28;20224;-55
2022/04/09 09:40:42;;;;;;;3.05;2.85;;;;;;;7.67;63.58;98298.41;4133866;28;20298;-55
2022/04/09 09:42:43;;;;;;;3.10;2.90;;;;;;;7.67;64.39;98303.84;4151363;28;20701;-55